Latest Weather Observations for Warwick

IDQ60901

Issued at 10:15 am EST Wednesday 24 September 2014 (issued every 10 minutes, with the page automatically refreshed every 10 minutes)

About weather observations | Map of Brisbane area stations | Latest observations for Brisbane area | Other Formats
Station Details ID: 041525 Name: WARWICK Lat: -28.21 Lon: 152.10 Height: 475.4 m
Data from the previous 72 hours. | See also: Recent months at Warwick
Date/Time
EST
Tmp

°C
App
Tmp
°C
Dew
Point
°C
Rel
Hum
%
Delta-T

°C
Wind Press
QNH
hPa
Press
MSL
hPa
Rain
since
9 am
mm
Dir
 
Spd
km/h
Gust
km/h
Spd
kts
Gust
kts
24/10:00am 19.8 16.2 8.3 47 6.1 ENE 17 24 9 13 1024.6 1023.7 0.0
24/09:30am 19.8 16.0 7.5 45 6.4 ENE 17 32 9 17 1024.7 1023.8 0.0
24/09:00am 18.4 16.4 8.5 52 5.2 ENE 9 20 5 11 1025.0 1024.1 0.0
24/08:30am 17.5 15.8 8.3 54 4.8 ESE 7 15 4 8 1025.2 1024.4 0.0
24/08:00am 15.3 14.7 9.0 66 3.3 SE 2 9 1 5 1025.3 1024.5 0.0
24/07:30am 12.9 12.7 9.0 77 2.0 CALM 0 0 0 0 1025.3 1024.5 0.0
24/07:00am 11.2 10.8 8.4 83 1.4 CALM 0 0 0 0 1025.1 1024.2 0.0
24/06:30am 9.3 8.8 7.7 90 0.8 CALM 0 0 0 0 1025.0 1024.1 0.0
24/06:00am 7.8 7.0 6.7 93 0.5 CALM 0 0 0 0 1024.8 1023.9 0.0
24/05:30am 8.8 6.9 6.9 88 0.9 NNE 6 7 3 4 1024.5 1023.6 0.0
24/05:00am 9.2 7.8 7.1 87 1.0 NNE 4 7 2 4 1024.8 1023.9 0.0
24/04:30am 9.7 7.7 7.2 84 1.2 NE 7 9 4 5 1024.7 1023.8 0.0
24/04:00am 9.1 6.7 7.2 88 0.9 NE 9 11 5 6 1024.7 1023.8 0.0
24/03:30am 9.4 7.0 7.1 85 1.1 NE 9 13 5 7 1024.9 1024.0 0.0
24/03:00am 8.3 5.4 6.4 88 0.9 NNE 11 13 6 7 1025.3 1024.5 0.0
24/02:30am 7.2 4.5 5.4 88 0.8 NE 9 11 5 6 1025.5 1024.7 0.0
24/02:00am 8.6 7.4 6.5 87 1.0 ENE 2 7 1 4 1025.6 1024.8 0.0
24/01:30am 8.0 7.2 6.5 90 0.7 CALM 0 0 0 0 1025.8 1025.0 0.0
24/01:00am 8.6 6.4 6.3 85 1.1 E 7 11 4 6 1025.8 1025.0 0.0
24/12:30am 9.2 7.2 6.9 85 1.1 ENE 7 11 4 6 1026.2 1025.3 0.0
24/12:00am 10.7 8.3 7.2 79 1.7 NNE 9 11 5 6 1026.6 1025.7 0.0
 
Date/Time
EST
Tmp

°C
App
Tmp
°C
Dew
Point
°C
Rel
Hum
%
Delta-T

°C
Wind Press
QNH
hPa
Press
MSL
hPa
Rain
since
9 am
mm
Dir
 
Spd
km/h
Gust
km/h
Spd
kts
Gust
kts
23/11:30pm 11.1 9.3 7.9 81 1.6 NE 7 9 4 5 1026.8 1025.9 0.0
23/11:00pm 12.4 9.8 7.6 72 2.4 NNE 11 13 6 7 1027.1 1026.3 0.0
23/10:30pm 13.3 10.0 7.9 70 2.7 NNE 15 17 8 9 1027.1 1026.3 0.0
23/10:00pm 13.0 9.3 7.8 70 2.6 NE 17 19 9 10 1027.1 1026.3 0.0
23/09:30pm 14.1 9.0 7.8 66 3.2 NE 24 30 13 16 1026.9 1026.0 0.0
23/09:00pm 13.9 9.5 7.5 65 3.2 NE 20 26 11 14 1026.8 1025.9 0.0
23/08:30pm 14.2 10.0 7.4 63 3.4 NE 19 24 10 13 1026.5 1025.6 0.0
23/08:00pm 14.3 10.9 7.5 63 3.4 NE 15 17 8 9 1026.5 1025.6 0.0
23/07:30pm 15.5 11.1 7.4 58 4.1 NE 20 24 11 13 1026.0 1025.2 0.0
23/07:00pm 15.4 12.2 7.0 57 4.2 NE 13 19 7 10 1025.8 1025.0 0.0
23/06:30pm 15.0 11.6 5.8 54 4.5 NE 13 15 7 8 1025.5 1024.7 0.0
23/06:00pm 17.5 14.0 5.3 44 6.0 ENE 13 24 7 13 1025.2 1024.4 0.0
23/05:30pm 18.3 14.2 4.6 40 6.7 ENE 15 20 8 11 1024.9 1024.0 0.0
23/05:00pm 19.4 15.0 4.8 38 7.2 ENE 17 26 9 14 1024.7 1023.8 0.0
23/04:30pm 19.8 15.3 4.0 35 7.7 ENE 17 24 9 13 1024.6 1023.7 0.0
23/04:00pm 21.1 17.5 4.9 34 8.1 E 13 32 7 17 1024.6 1023.7 0.0
23/03:30pm 21.5 17.8 4.4 32 8.5 ENE 13 22 7 12 1024.7 1023.8 0.0
23/03:00pm 21.3 16.8 4.4 33 8.4 E 17 26 9 14 1024.7 1023.8 0.0
23/02:30pm 20.9 16.4 4.3 33 8.2 E 17 28 9 15 1024.8 1023.9 0.0
23/02:00pm 21.2 16.6 3.9 32 8.5 E 17 26 9 14 1025.2 1024.4 0.0
23/01:30pm 21.0 16.6 5.0 35 8.1 ENE 17 32 9 17 1025.6 1024.8 0.0
23/01:00pm 20.8 17.0 5.6 37 7.7 E 15 28 8 15 1026.2 1025.3 0.0
23/12:30pm 19.9 15.7 5.6 39 7.2 E 17 30 9 16 1026.6 1025.7 0.0
23/12:00pm 20.9 17.2 6.5 39 7.4 ESE 15 24 8 13 1027.1 1026.3 0.0
23/11:30am 20.6 16.2 4.7 35 7.9 E 17 32 9 17 1027.7 1026.9 0.0
23/11:00am 19.6 15.6 6.7 43 6.6 SE 17 24 9 13 1028.2 1027.4 0.0
23/10:30am 18.9 14.9 6.7 45 6.3 ESE 17 26 9 14 1028.4 1027.5 0.0
23/10:00am 19.0 15.3 6.4 43 6.4 ESE 15 24 8 13 1028.7 1027.8 0.0
23/09:30am 18.2 14.2 6.8 47 5.8 SE 17 28 9 15 1028.9 1028.1 0.0
23/09:00am 17.8 13.2 6.7 48 5.6 ESE 20 32 11 17 1028.9 1028.1 0.0
23/08:30am 16.4 12.2 7.6 56 4.5 SE 19 30 10 16 1028.9 1028.1 0.0
23/08:00am 15.4 11.2 8.2 62 3.7 SE 20 30 11 16 1028.7 1027.8 0.0
23/07:30am 14.3 10.9 9.3 72 2.6 SSE 17 28 9 15 1028.4 1027.5 0.0
23/07:00am 13.0 10.4 9.5 79 1.8 SE 13 20 7 11 1028.2 1027.4 0.0
23/06:30am 10.4 10.1 8.8 90 0.8 CALM 0 6 0 3 1028.0 1027.2 0.0
23/06:00am 10.6 9.1 8.4 86 1.1 ENE 6 7 3 4 1027.8 1027.0 0.0
23/05:30am 10.4 9.0 8.8 90 0.8 ESE 6 13 3 7 1027.6 1026.8 0.0
23/05:00am 11.4 9.6 9.5 88 1.0 SE 9 15 5 8 1027.4 1026.6 0.0
23/04:30am 11.5 9.4 9.6 88 1.0 SE 11 17 6 9 1027.3 1026.5 0.0
23/04:00am 10.6 10.1 9.2 91 0.7 ESE 2 7 1 4 1027.2 1026.4 0.0
23/03:30am 11.2 9.3 9.2 87 1.0 SSE 9 15 5 8 1026.9 1026.0 0.0
23/03:00am 10.2 9.5 8.4 89 0.9 ESE 2 7 1 4 1027.0 1026.2 0.0
23/02:30am 10.4 8.9 8.4 87 1.0 SE 6 11 3 6 1027.0 1026.2 0.0
23/02:00am 10.8 9.7 8.4 85 1.2 SE 4 9 2 5 1027.2 1026.4 0.0
23/01:30am 11.3 8.8 8.1 81 1.6 SE 11 17 6 9 1027.3 1026.5 0.0
23/01:00am 11.3 9.6 8.3 82 1.5 ESE 7 13 4 7 1027.5 1026.7 0.0
23/12:30am 10.5 9.3 8.1 85 1.2 ESE 4 9 2 5 1027.9 1027.1 0.0
23/12:00am 11.1 10.3 8.3 83 1.4 SE 2 7 1 4 1028.1 1027.3 0.0
 
Date/Time
EST
Tmp

°C
App
Tmp
°C
Dew
Point
°C
Rel
Hum
%
Delta-T

°C
Wind Press
QNH
hPa
Press
MSL
hPa
Rain
since
9 am
mm
Dir
 
Spd
km/h
Gust
km/h
Spd
kts
Gust
kts
22/11:30pm 11.6 9.8 7.8 77 1.9 ESE 7 11 4 6 1028.5 1027.6 0.0
22/11:00pm 11.8 10.0 8.0 77 1.9 ESE 7 11 4 6 1028.8 1027.9 0.0
22/10:30pm 12.1 9.8 7.4 73 2.3 E 9 17 5 9 1028.7 1027.8 0.0
22/10:00pm 11.8 10.0 8.0 77 1.9 ESE 7 13 4 7 1028.6 1027.7 0.0
22/09:30pm 12.3 10.5 7.9 74 2.2 E 7 11 4 6 1028.8 1027.9 0.0
22/09:00pm 12.5 10.9 8.6 77 2.0 E 7 11 4 6 1028.9 1028.1 0.0
22/08:30pm 11.3 9.6 8.3 82 1.5 E 7 9 4 5 1028.7 1027.8 0.0
22/08:00pm 12.5 10.9 8.6 77 2.0 SE 7 13 4 7 1028.2 1027.4 0.0
22/07:30pm 12.3 12.1 9.2 81 1.6 CALM 0 6 0 3 1027.8 1027.0 0.0
22/07:00pm 13.4 12.6 9.6 78 2.0 E 4 7 2 4 1027.5 1026.7 0.0
22/06:30pm 14.4 13.1 10.1 75 2.3 ESE 7 13 4 7 1027.3 1026.5 0.0
22/06:00pm 14.4 12.8 10.1 75 2.3 ESE 9 13 5 7 1026.9 1026.0 0.0
22/05:30pm 14.9 13.4 10.6 75 2.3 ESE 9 17 5 9 1026.6 1025.7 0.0
22/05:00pm 15.0 13.9 11.9 82 1.7 E 9 13 5 7 1026.4 1025.5 0.0
22/04:30pm 14.5 12.9 11.4 82 1.7 NE 11 17 6 9 1026.2 1025.3 0.0
22/04:00pm 14.7 12.1 12.0 84 1.5 NE 17 26 9 14 1026.3 1025.4 0.0
22/03:30pm 16.6 11.5 10.7 68 3.2 NE 28 35 15 19 1025.9 1025.1 0.0
22/03:00pm 19.3 15.6 7.8 47 6.0 SE 17 33 9 18 1025.6 1024.8 0.0
22/02:30pm 19.7 16.0 8.1 47 6.1 SE 17 32 9 17 1025.5 1024.7 0.0
22/02:00pm 18.6 13.5 7.6 48 5.7 SE 24 33 13 18 1025.9 1025.1 0.0
22/01:30pm 18.6 14.5 7.8 49 5.6 SE 19 30 10 16 1026.2 1025.3 0.0
22/01:00pm 18.1 13.2 8.4 53 5.1 SE 24 35 13 19 1026.5 1025.6 0.0
22/12:30pm 19.7 15.5 7.6 45 6.3 SE 19 30 10 16 1026.7 1025.8 0.0
22/12:00pm 19.5 15.2 6.8 43 6.5 ESE 19 32 10 17 1027.1 1026.3 0.0
22/11:30am 19.1 15.2 7.3 46 6.1 ESE 17 32 9 17 1027.5 1026.7 0.0
22/11:00am 18.5 14.1 7.2 47 5.8 SE 20 33 11 18 1027.8 1027.0 0.0
22/10:30am 18.8 14.8 8.3 50 5.5 ESE 19 35 10 19 1028.0 1027.2 0.0
22/10:00am 17.6 14.4 8.4 55 4.8 ESE 15 30 8 16 1028.2 1027.4 0.0
22/09:30am 16.2 12.6 8.5 60 4.0 ESE 17 28 9 15 1028.5 1027.6 0.0
22/09:00am 15.7 12.2 8.8 63 3.6 SE 17 30 9 16 1028.5 1027.6 0.0
22/08:30am 16.1 12.4 8.1 59 4.1 ESE 17 30 9 16 1028.2 1027.4 0.0
22/08:00am 14.6 10.9 8.1 65 3.3 SE 17 30 9 16 1028.0 1027.2 0.0
22/07:30am 13.9 10.0 8.6 70 2.7 SE 19 28 10 15 1027.7 1026.9 0.0
22/07:00am 13.1 9.9 8.6 74 2.3 SE 15 26 8 14 1027.5 1026.7 0.0
22/06:30am 12.2 9.1 8.7 79 1.8 SE 15 22 8 12 1027.3 1026.5 0.0
22/06:00am 11.2 8.3 8.2 82 1.5 SE 13 19 7 10 1026.8 1025.9 0.0
22/05:30am 11.3 8.3 7.9 79 1.7 SE 13 22 7 12 1026.4 1025.5 0.0
22/05:00am 11.1 8.9 7.9 81 1.6 ESE 9 15 5 8 1026.4 1025.5 0.0
22/04:30am 11.3 9.1 7.9 79 1.7 ESE 9 17 5 9 1025.9 1025.1 0.0
22/04:00am 11.5 8.4 7.4 76 2.0 SE 13 20 7 11 1025.6 1024.8 0.0
22/03:30am 11.5 9.3 7.7 77 1.9 ESE 9 15 5 8 1025.5 1024.7 0.0
22/03:00am 11.8 9.6 7.8 76 2.0 SE 9 13 5 7 1025.8 1025.0 0.0
22/02:30am 11.9 9.8 8.1 77 1.9 ESE 9 15 5 8 1026.4 1025.5 0.0
22/02:00am 12.0 10.4 8.2 77 1.9 ESE 6 13 3 7 1026.6 1025.7 0.0
22/01:30am 12.2 9.7 8.2 76 2.0 SE 11 15 6 8 1026.7 1025.8 0.0
22/01:00am 12.5 10.4 8.3 75 2.1 SE 9 13 5 7 1027.2 1026.4 0.0
22/12:30am 12.7 10.3 8.6 76 2.1 SE 11 19 6 10 1027.3 1026.5 0.0
22/12:00am 12.8 10.8 8.5 75 2.2 SE 9 19 5 10 1027.5 1026.7 0.0
 
Date/Time
EST
Tmp

°C
App
Tmp
°C
Dew
Point
°C
Rel
Hum
%
Delta-T

°C
Wind Press
QNH
hPa
Press
MSL
hPa
Rain
since
9 am
mm
Dir
 
Spd
km/h
Gust
km/h
Spd
kts
Gust
kts
21/11:30pm 13.0 10.6 8.5 74 2.3 SE 11 15 6 8 1027.7 1026.9 0.0
21/11:00pm 12.9 10.9 8.6 75 2.2 SE 9 17 5 9 1027.4 1026.6 0.0
21/10:30pm 13.2 10.4 8.7 74 2.3 SE 13 20 7 11 1027.6 1026.8 0.0
21/10:00pm 13.2 11.2 8.7 74 2.3 SE 9 17 5 9 1028.2 1027.4 0.0
21/09:30pm 13.4 10.3 8.9 74 2.3 SE 15 28 8 15 1028.0 1027.2 0.0
21/09:00pm 13.9 11.1 8.4 69 2.8 SE 13 20 7 11 1027.8 1027.0 0.0
21/08:30pm 14.0 11.6 8.5 69 2.8 ESE 11 20 6 11 1027.9 1027.1 0.0
21/08:00pm 14.2 11.3 8.1 66 3.1 ESE 13 24 7 13 1027.5 1026.7 0.0
21/07:30pm 14.5 11.2 8.0 65 3.3 ESE 15 28 8 15 1027.2 1026.4 0.0
21/07:00pm 15.1 11.4 8.1 63 3.6 SE 17 30 9 16 1026.8 1025.9 0.0
21/06:30pm 15.6 12.1 8.7 63 3.6 SE 17 24 9 13 1026.0 1025.2 0.0
21/06:00pm 16.1 11.7 7.2 55 4.5 SE 20 32 11 17 1025.5 1024.7 0.0
21/05:30pm 16.8 12.5 7.2 53 4.9 SE 19 30 10 16 1024.7 1023.8 0.0
21/05:00pm 17.2 12.3 7.0 51 5.2 SE 22 35 12 19 1024.4 1023.5 0.0
21/04:30pm 18.1 12.1 5.1 42 6.4 SE 26 41 14 22 1024.0 1023.1 0.0
21/04:00pm 19.5 15.1 5.0 38 7.2 SE 17 28 9 15 1023.5 1022.7 0.0
21/03:30pm 19.9 15.7 3.6 34 7.9 SE 15 20 8 11 1023.6 1022.8 0.0
21/03:00pm 20.9 15.8 4.3 33 8.2 SE 20 32 11 17 1023.6 1022.8 0.0
21/02:30pm 21.4 16.9 4.2 32 8.5 ESE 17 30 9 16 1023.5 1022.7 0.0
21/02:00pm 22.1 17.8 5.1 33 8.6 ESE 17 30 9 16 1023.4 1022.6 0.0
21/01:30pm 20.9 16.6 5.2 35 7.9 SE 17 35 9 19 1023.5 1022.7 0.0
21/01:00pm 20.6 16.3 5.3 36 7.7 SE 17 28 9 15 1024.1 1023.2 0.0
21/12:30pm 20.3 15.6 5.1 37 7.6 E 19 35 10 19 1024.4 1023.5 0.0
21/12:00pm 20.4 16.2 5.5 37 7.5 ESE 17 32 9 17 1024.7 1023.8 0.0
21/11:30am 19.3 14.7 5.8 41 6.8 SE 19 30 10 16 1025.3 1024.5 0.0
21/11:00am 19.1 14.3 5.7 41 6.7 SSE 20 32 11 17 1025.7 1024.9 0.0
21/10:30am 18.1 13.3 5.6 44 6.2 SE 20 35 11 19 1025.6 1024.8 0.0

Latest Capital City Observations: Canberra | Sydney | Melbourne | Brisbane | Adelaide | Perth | Hobart | Darwin

Other Formats:

Comma delimited format used in spreadsheet applications
http://www.bom.gov.au/fwo/IDQ60901/IDQ60901.94555.axf

JavaScript Object Notation format (JSON) in row-major order
http://www.bom.gov.au/fwo/IDQ60901/IDQ60901.94555.json